createdAt,value
2023-05-14T00:02:40.442Z,56.49
2023-05-14T00:05:26.104Z,56.58
2023-05-14T00:08:11.534Z,56.33
2023-05-14T00:10:56.872Z,56.48
2023-05-14T00:13:42.237Z,56.93
2023-05-14T00:16:27.710Z,57.07
2023-05-14T00:19:12.769Z,57.23
2023-05-14T00:21:58.252Z,57.08
2023-05-14T00:24:43.588Z,57.08
2023-05-14T00:27:29.173Z,57.03
2023-05-14T00:30:14.345Z,57.31
2023-05-14T00:32:59.561Z,57.52
2023-05-14T00:35:45.021Z,57.59
2023-05-14T00:38:30.423Z,57.92
2023-05-14T00:41:15.752Z,58.08
2023-05-14T00:44:01.575Z,58.54
2023-05-14T00:46:47.419Z,58.76
2023-05-14T00:49:32.823Z,58.56
2023-05-14T00:52:18.570Z,59.07
2023-05-14T00:55:06.194Z,58.82
2023-05-14T00:57:53.244Z,58.93
2023-05-14T01:00:39.888Z,59.39
2023-05-14T01:03:25.541Z,59.67
2023-05-14T01:06:21.604Z,59.42
2023-05-14T01:09:22.965Z,59.64
2023-05-14T01:12:34.907Z,59.85
2023-05-14T01:15:31.982Z,60.14
2023-05-14T01:18:19.425Z,60.13
2023-05-14T01:21:04.846Z,59.65
2023-05-14T01:23:49.983Z,58.16
2023-05-14T01:26:36.544Z,58.32
2023-05-14T01:29:23.240Z,58.96
2023-05-14T01:32:10.495Z,58.15
2023-05-14T01:34:58.605Z,58.72
2023-05-14T01:37:44.631Z,58.81
2023-05-14T01:40:32.773Z,58.45
2023-05-14T01:43:19.126Z,58.21
2023-05-14T01:46:04.909Z,58.63
2023-05-14T01:48:50.771Z,58.79
2023-05-14T01:51:36.038Z,58.41
2023-05-14T01:54:21.184Z,58.81
2023-05-14T01:57:06.739Z,58.96
2023-05-14T01:59:52.193Z,59.16
2023-05-14T02:02:37.414Z,58.48
2023-05-14T02:05:23.876Z,58.43
2023-05-14T02:08:09.073Z,57.37
2023-05-14T02:10:54.591Z,57.84
2023-05-14T02:13:41.122Z,55.12
2023-05-14T02:16:26.270Z,53.68
2023-05-14T02:19:11.842Z,51.57
2023-05-14T02:21:57.131Z,50.93
2023-05-14T02:24:42.550Z,50.79
2023-05-14T02:27:27.671Z,50.48
2023-05-14T02:30:12.892Z,50.44
2023-05-14T02:32:58.604Z,50.48
2023-05-14T02:35:43.640Z,50.66
2023-05-14T02:38:29.886Z,50.44
2023-05-14T02:41:15.041Z,50.52
2023-05-14T02:44:00.457Z,50.20
2023-05-14T02:46:47.819Z,50.45
2023-05-14T02:49:32.975Z,50.07
2023-05-14T02:52:18.183Z,49.98
2023-05-14T02:55:03.630Z,49.76
2023-05-14T02:57:49.109Z,50.02
2023-05-14T03:00:34.395Z,49.80
2023-05-14T03:03:20.417Z,49.91
2023-05-14T03:06:09.131Z,49.56
2023-05-14T03:08:54.513Z,49.59
2023-05-14T03:11:39.728Z,49.79
2023-05-14T03:14:24.945Z,49.69
2023-05-14T03:17:10.370Z,49.77
2023-05-14T03:19:55.702Z,49.15
2023-05-14T03:22:41.318Z,49.40
2023-05-14T03:25:29.511Z,49.10
2023-05-14T03:28:14.947Z,49.38
2023-05-14T03:31:00.912Z,49.27
2023-05-14T03:33:46.073Z,49.33
2023-05-14T03:36:31.920Z,49.38
2023-05-14T03:39:19.732Z,49.19
2023-05-14T03:42:05.136Z,48.99
2023-05-14T03:44:50.613Z,48.71
2023-05-14T03:47:35.905Z,49.03
2023-05-14T03:50:21.571Z,48.05
2023-05-14T03:53:06.736Z,48.35
2023-05-14T03:55:52.202Z,47.92
2023-05-14T03:58:37.504Z,47.43
2023-05-14T04:01:22.570Z,47.63
2023-05-14T04:04:09.311Z,48.20
2023-05-14T04:06:54.973Z,47.86
2023-05-14T04:09:40.065Z,48.20
2023-05-14T04:12:26.652Z,48.06
2023-05-14T04:15:11.746Z,48.00
2023-05-14T04:17:56.881Z,48.37
2023-05-14T04:20:42.264Z,48.70
2023-05-14T04:23:27.328Z,48.42
2023-05-14T04:26:12.653Z,48.32
2023-05-14T04:28:58.290Z,48.39
2023-05-14T04:31:44.614Z,48.58
2023-05-14T04:34:30.116Z,48.76
2023-05-14T04:37:15.780Z,48.95
2023-05-14T04:40:01.065Z,48.80
2023-05-14T04:42:46.228Z,48.59
2023-05-14T04:45:34.170Z,48.55
2023-05-14T04:48:19.817Z,48.77
2023-05-14T04:51:06.913Z,48.34
2023-05-14T04:53:52.412Z,47.99
2023-05-14T04:56:38.024Z,47.79
2023-05-14T04:59:23.191Z,47.64
2023-05-14T05:02:08.966Z,47.74
2023-05-14T05:04:53.998Z,47.37
2023-05-14T05:07:39.566Z,47.48
2023-05-14T05:10:25.076Z,47.27
2023-05-14T05:13:10.467Z,47.18
2023-05-14T05:15:55.965Z,46.85
2023-05-14T05:18:41.216Z,46.77
2023-05-14T05:21:26.399Z,47.10
2023-05-14T05:24:13.239Z,47.21
2023-05-14T05:26:58.432Z,47.28
2023-05-14T05:29:44.555Z,47.41
2023-05-14T05:32:29.947Z,47.25
2023-05-14T05:35:15.018Z,46.60
2023-05-14T05:38:01.605Z,46.76
2023-05-14T05:40:47.958Z,46.14
2023-05-14T05:43:34.122Z,45.99
2023-05-14T05:46:19.574Z,45.96
2023-05-14T05:49:04.657Z,46.09
2023-05-14T05:51:50.055Z,46.06
2023-05-14T05:54:35.273Z,46.24
2023-05-14T05:57:21.753Z,46.06
2023-05-14T06:00:13.531Z,46.23
2023-05-14T06:02:59.857Z,46.00
2023-05-14T06:05:46.657Z,46.38
2023-05-14T06:08:32.053Z,46.31
2023-05-14T06:11:17.225Z,46.10
2023-05-14T06:14:02.386Z,46.00
2023-05-14T06:16:47.828Z,45.38
2023-05-14T06:19:33.096Z,45.83
2023-05-14T06:22:18.791Z,45.48
2023-05-14T06:25:04.591Z,45.79
2023-05-14T06:27:50.143Z,46.49
2023-05-14T06:30:35.484Z,46.11
2023-05-14T06:33:29.461Z,46.02
2023-05-14T06:36:14.905Z,45.79
2023-05-14T06:39:00.241Z,45.27
2023-05-14T06:41:45.545Z,45.01
2023-05-14T06:44:33.156Z,44.71
2023-05-14T06:47:18.679Z,44.60
2023-05-14T06:50:04.149Z,44.35
2023-05-14T06:52:49.594Z,44.02
2023-05-14T06:55:34.653Z,43.51
2023-05-14T06:58:20.229Z,43.44
2023-05-14T07:01:06.516Z,43.31
2023-05-14T07:03:51.802Z,43.61
2023-05-14T07:06:37.391Z,43.07
2023-05-14T07:09:22.795Z,42.89
2023-05-14T07:12:08.331Z,42.76
2023-05-14T07:14:53.852Z,43.13
2023-05-14T07:17:41.630Z,43.43
2023-05-14T07:20:26.890Z,42.96
2023-05-14T07:23:12.364Z,43.02
2023-05-14T07:25:57.684Z,42.73
2023-05-14T07:28:43.204Z,42.68
2023-05-14T07:31:31.415Z,41.97
2023-05-14T07:34:16.823Z,41.27
2023-05-14T07:37:02.733Z,41.14
2023-05-14T07:39:48.528Z,41.17
2023-05-14T07:42:36.670Z,40.79
2023-05-14T07:45:28.545Z,40.22
2023-05-14T07:48:14.293Z,39.24
2023-05-14T07:50:59.755Z,39.31
2023-05-14T07:53:44.805Z,38.42
2023-05-14T07:56:30.594Z,38.49
2023-05-14T07:59:15.766Z,38.04
2023-05-14T08:02:01.026Z,37.88
2023-05-14T08:04:46.249Z,37.81
2023-05-14T08:07:31.730Z,37.59
2023-05-14T08:10:16.962Z,36.93
2023-05-14T08:13:02.975Z,36.92
2023-05-14T08:15:48.466Z,36.48
2023-05-14T08:18:38.609Z,36.22
2023-05-14T08:21:32.615Z,35.57
2023-05-14T08:24:18.640Z,35.75
2023-05-14T08:27:04.226Z,35.38
2023-05-14T08:29:49.506Z,35.28
2023-05-14T08:32:34.905Z,34.53
2023-05-14T08:35:20.173Z,34.07
2023-05-14T08:38:05.484Z,34.08
2023-05-14T08:40:59.688Z,33.44
2023-05-14T08:44:20.732Z,33.91
2023-05-14T08:47:06.703Z,33.57
2023-05-14T08:50:04.460Z,33.01
2023-05-14T08:52:53.266Z,33.77
2023-05-14T08:55:38.838Z,33.80
2023-05-14T08:58:26.519Z,34.10
2023-05-14T09:01:11.866Z,33.49
2023-05-14T09:03:58.608Z,33.41
2023-05-14T09:06:45.006Z,32.95
2023-05-14T09:09:31.013Z,33.17
2023-05-14T09:12:16.802Z,32.19
2023-05-14T09:15:02.360Z,32.03
2023-05-14T09:17:48.694Z,31.28
2023-05-14T09:20:34.525Z,31.23
2023-05-14T09:23:21.829Z,31.24
2023-05-14T09:26:06.940Z,31.25
2023-05-14T09:28:57.200Z,31.74
2023-05-14T09:31:43.008Z,31.24
2023-05-14T09:34:33.222Z,31.38
2023-05-14T09:37:18.758Z,31.65
2023-05-14T09:40:09.289Z,31.41
2023-05-14T09:42:54.883Z,30.94
2023-05-14T09:45:42.929Z,30.20
2023-05-14T09:48:29.062Z,31.39
2023-05-14T09:51:14.240Z,31.62
2023-05-14T09:54:00.484Z,32.00
2023-05-14T09:56:45.725Z,32.46
2023-05-14T09:59:32.976Z,32.27
2023-05-14T10:02:36.973Z,32.96
2023-05-14T10:08:12.841Z,32.87
2023-05-14T10:10:59.153Z,32.62
2023-05-14T10:13:50.068Z,32.24
2023-05-14T10:16:40.395Z,32.14
2023-05-14T10:19:31.028Z,31.96
2023-05-14T10:22:22.287Z,32.46
2023-05-14T10:25:08.510Z,32.64
2023-05-14T10:27:54.780Z,32.51
2023-05-14T10:30:46.860Z,32.84
2023-05-14T10:33:47.039Z,33.19
2023-05-14T10:36:32.858Z,33.35
2023-05-14T10:39:18.033Z,32.48
2023-05-14T10:42:08.097Z,32.61
2023-05-14T10:44:57.984Z,31.92
2023-05-14T10:47:46.021Z,31.91
2023-05-14T10:50:31.358Z,31.83
2023-05-14T10:53:17.385Z,32.18
2023-05-14T10:56:08.533Z,32.24
2023-05-14T10:58:58.302Z,32.50
2023-05-14T11:01:43.410Z,32.44
2023-05-14T11:04:28.854Z,32.25
2023-05-14T11:07:14.312Z,32.64
2023-05-14T11:10:05.531Z,32.43
2023-05-14T11:12:51.982Z,33.15
2023-05-14T11:15:38.664Z,33.86
2023-05-14T11:18:33.383Z,33.92
2023-05-14T11:21:18.860Z,33.95
2023-05-14T11:24:05.469Z,33.76
2023-05-14T11:26:54.204Z,34.01
2023-05-14T11:29:44.264Z,33.78
2023-05-14T11:32:32.205Z,33.95
2023-05-14T11:35:18.305Z,34.04
2023-05-14T11:38:03.591Z,34.01
2023-05-14T11:40:53.977Z,33.64
2023-05-14T11:43:39.273Z,33.50
2023-05-14T11:46:25.827Z,32.94
2023-05-14T11:49:12.157Z,33.11
2023-05-14T11:52:02.068Z,32.86
2023-05-14T11:54:47.696Z,32.91
2023-05-14T11:57:33.189Z,33.27
2023-05-14T12:00:22.100Z,33.71
2023-05-14T12:03:10.034Z,33.67
2023-05-14T12:05:57.028Z,33.45
2023-05-14T12:08:42.602Z,33.50
2023-05-14T12:11:34.375Z,33.52
2023-05-14T12:14:22.329Z,32.98
2023-05-14T12:17:21.964Z,33.17
2023-05-14T12:20:11.777Z,32.88
2023-05-14T12:22:57.409Z,32.73
2023-05-14T12:25:52.131Z,32.15
2023-05-14T12:28:43.632Z,31.97
2023-05-14T12:31:33.707Z,31.77
2023-05-14T12:34:19.122Z,31.77
2023-05-14T12:37:05.251Z,31.95
2023-05-14T12:39:50.663Z,31.83
2023-05-14T12:42:36.399Z,31.35
2023-05-14T12:45:22.100Z,31.10
2023-05-14T12:48:07.716Z,31.74
2023-05-14T12:50:52.981Z,31.57
2023-05-14T12:53:38.495Z,31.35
2023-05-14T12:56:27.747Z,31.35
2023-05-14T12:59:12.869Z,31.10
2023-05-14T13:01:58.247Z,31.15
2023-05-14T13:04:43.889Z,31.05
2023-05-14T13:07:30.366Z,30.80
2023-05-14T13:10:21.881Z,30.31
2023-05-14T13:13:07.485Z,30.15
2023-05-14T13:15:52.980Z,30.04
2023-05-14T13:18:38.288Z,30.85
2023-05-14T13:21:26.313Z,31.65
2023-05-14T13:24:11.534Z,31.26
2023-05-14T13:26:56.968Z,31.13
2023-05-14T13:29:42.995Z,31.02
2023-05-14T13:32:28.062Z,31.24
2023-05-14T13:35:14.171Z,30.91
2023-05-14T13:37:59.401Z,31.10
2023-05-14T13:40:44.715Z,30.73
2023-05-14T13:43:31.468Z,30.61
2023-05-14T13:46:17.020Z,30.62
2023-05-14T13:49:02.276Z,30.46
2023-05-14T13:51:47.536Z,30.37
2023-05-14T13:54:32.794Z,30.66
2023-05-14T13:57:19.368Z,30.65
2023-05-14T14:00:06.563Z,30.96
2023-05-14T14:02:52.392Z,31.18
2023-05-14T14:05:38.009Z,30.97
2023-05-14T14:08:24.523Z,31.00
2023-05-14T14:11:10.356Z,31.29
2023-05-14T14:13:55.691Z,31.06
2023-05-14T14:16:40.966Z,31.04
2023-05-14T14:19:26.390Z,31.10
2023-05-14T14:22:12.581Z,30.82
2023-05-14T14:24:57.743Z,30.85
2023-05-14T14:27:43.155Z,30.94
2023-05-14T14:30:28.315Z,30.64
2023-05-14T14:33:13.727Z,30.24
2023-05-14T14:35:58.809Z,30.18
2023-05-14T14:38:44.087Z,30.14
2023-05-14T14:41:29.608Z,29.83
2023-05-14T14:44:14.931Z,29.95
2023-05-14T14:47:00.475Z,29.77
2023-05-14T14:49:45.831Z,29.68
2023-05-14T14:52:31.151Z,29.58
2023-05-14T14:55:16.260Z,29.43
2023-05-14T14:58:01.657Z,29.38
2023-05-14T15:00:47.815Z,29.27
2023-05-14T15:03:33.357Z,28.97
2023-05-14T15:06:18.707Z,28.97
2023-05-14T15:09:04.240Z,28.71
2023-05-14T15:11:49.611Z,29.14
2023-05-14T15:14:35.132Z,29.47
2023-05-14T15:17:20.522Z,29.16
2023-05-14T15:20:07.285Z,28.92
2023-05-14T15:22:53.656Z,29.16
2023-05-14T15:25:38.793Z,29.06
2023-05-14T15:28:24.069Z,29.37
2023-05-14T15:31:09.633Z,29.42
2023-05-14T15:33:55.967Z,29.89
2023-05-14T15:36:41.378Z,29.65
2023-05-14T15:39:28.414Z,29.71
2023-05-14T15:42:14.904Z,30.23
2023-05-14T15:45:00.181Z,30.14
2023-05-14T15:47:45.499Z,30.42
2023-05-14T15:50:30.594Z,30.53
2023-05-14T15:53:15.960Z,30.62
2023-05-14T15:56:01.631Z,30.59
2023-05-14T15:58:46.740Z,30.65
2023-05-14T16:01:32.302Z,30.56
2023-05-14T16:04:17.385Z,30.59
2023-05-14T16:07:09.859Z,30.80
2023-05-14T16:09:55.410Z,30.97
2023-05-14T16:12:40.785Z,30.98
2023-05-14T16:15:26.033Z,30.92
2023-05-14T16:18:11.439Z,30.84
2023-05-14T16:20:56.519Z,31.12
2023-05-14T16:23:41.616Z,31.49
2023-05-14T16:26:27.238Z,31.33
2023-05-14T16:29:12.476Z,31.53
2023-05-14T16:31:58.397Z,31.65
2023-05-14T16:34:49.727Z,31.98
2023-05-14T16:37:37.378Z,32.30
2023-05-14T16:40:23.467Z,32.48
2023-05-14T16:43:09.344Z,32.35
2023-05-14T16:45:55.345Z,32.39
2023-05-14T16:48:42.893Z,32.74
2023-05-14T16:51:28.782Z,32.63
2023-05-14T16:54:14.040Z,32.87
2023-05-14T16:56:59.577Z,33.11
2023-05-14T16:59:44.883Z,33.00
2023-05-14T17:02:30.536Z,32.94
2023-05-14T17:05:16.245Z,32.99
2023-05-14T17:08:01.806Z,33.23
2023-05-14T17:10:47.320Z,33.51
2023-05-14T17:13:33.342Z,33.68
2023-05-14T17:16:19.727Z,34.12
2023-05-14T17:19:05.226Z,34.34
2023-05-14T17:21:50.535Z,34.53
2023-05-14T17:24:36.546Z,34.86
2023-05-14T17:27:21.774Z,35.25
2023-05-14T17:30:07.780Z,35.08
2023-05-14T17:32:52.920Z,35.09
2023-05-14T17:35:40.802Z,35.29
2023-05-14T17:38:26.310Z,35.37
2023-05-14T17:41:11.535Z,35.52
2023-05-14T17:43:57.080Z,35.71
2023-05-14T17:46:42.457Z,35.78
2023-05-14T17:49:28.034Z,35.81
2023-05-14T17:52:13.598Z,35.70
2023-05-14T17:54:58.910Z,35.60
2023-05-14T17:57:45.031Z,35.85
2023-05-14T18:00:30.498Z,36.20
2023-05-14T18:03:15.907Z,36.07
2023-05-14T18:06:01.463Z,36.22
2023-05-14T18:08:46.711Z,36.63
2023-05-14T18:11:35.439Z,36.65
2023-05-14T18:14:20.818Z,36.96
2023-05-14T18:17:06.341Z,37.05
2023-05-14T18:19:52.019Z,37.46
2023-05-14T18:22:37.445Z,37.51
2023-05-14T18:25:23.014Z,37.84
2023-05-14T18:28:09.544Z,38.08
2023-05-14T18:30:58.118Z,38.09
2023-05-14T18:33:43.722Z,38.11
2023-05-14T18:36:29.277Z,38.50
2023-05-14T18:39:14.566Z,38.67
2023-05-14T18:42:00.434Z,38.70
2023-05-14T18:44:45.977Z,38.93
2023-05-14T18:47:31.921Z,39.22
2023-05-14T18:50:17.401Z,39.19
2023-05-14T18:53:02.704Z,39.43
2023-05-14T18:55:48.256Z,39.29
2023-05-14T18:58:33.541Z,39.37
2023-05-14T19:01:18.675Z,39.57
2023-05-14T19:04:06.547Z,39.65
2023-05-14T19:06:51.923Z,39.89
2023-05-14T19:09:37.101Z,39.78
2023-05-14T19:12:22.557Z,39.85
2023-05-14T19:15:08.200Z,39.93
2023-05-14T19:17:54.256Z,40.14
2023-05-14T19:20:39.781Z,40.01
2023-05-14T19:23:24.983Z,40.39
2023-05-14T19:26:10.555Z,40.31
2023-05-14T19:28:59.933Z,40.51
2023-05-14T19:31:45.327Z,40.68
2023-05-14T19:34:30.897Z,40.83
2023-05-14T19:37:16.095Z,41.04
2023-05-14T19:40:01.448Z,41.35
2023-05-14T19:42:47.060Z,41.42
2023-05-14T19:45:39.170Z,41.95
2023-05-14T19:48:24.279Z,42.26
2023-05-14T19:51:10.852Z,42.29
2023-05-14T19:53:58.584Z,42.48
2023-05-14T19:56:47.110Z,42.70
2023-05-14T19:59:32.553Z,43.01
2023-05-14T20:02:18.484Z,43.17
2023-05-14T20:05:03.949Z,43.54
2023-05-14T20:07:49.271Z,43.52
2023-05-14T20:10:34.296Z,43.67
2023-05-14T20:13:23.026Z,44.19
2023-05-14T20:16:09.239Z,44.18
2023-05-14T20:18:54.690Z,44.83
2023-05-14T20:21:40.036Z,44.94
2023-05-14T20:24:27.189Z,45.28
2023-05-14T20:27:12.525Z,45.55
2023-05-14T20:29:58.360Z,45.50
2023-05-14T20:32:43.927Z,45.55
2023-05-14T20:35:29.382Z,46.06
2023-05-14T20:38:14.931Z,46.35
2023-05-14T20:41:00.722Z,46.25
2023-05-14T20:43:46.301Z,46.43
2023-05-14T20:46:31.605Z,46.24
2023-05-14T20:49:17.972Z,46.49
2023-05-14T20:52:03.286Z,47.04
2023-05-14T20:54:48.978Z,46.97
2023-05-14T20:57:34.720Z,47.22
2023-05-14T21:00:22.547Z,47.54
2023-05-14T21:03:07.874Z,47.23
2023-05-14T21:05:55.860Z,46.93
2023-05-14T21:08:40.970Z,47.31
2023-05-14T21:11:26.149Z,46.65
2023-05-14T21:14:11.701Z,47.17
2023-05-14T21:16:56.852Z,47.03
2023-05-14T21:19:42.154Z,47.31
2023-05-14T21:22:27.689Z,47.12
2023-05-14T21:25:12.992Z,47.54
2023-05-14T21:28:00.621Z,47.82
2023-05-14T21:30:46.130Z,47.93
2023-05-14T21:33:31.555Z,48.29
2023-05-14T21:36:17.061Z,48.60
2023-05-14T21:39:02.533Z,48.30
2023-05-14T21:41:47.814Z,48.71
2023-05-14T21:44:33.270Z,48.95
2023-05-14T21:47:19.776Z,49.08
2023-05-14T21:50:05.974Z,49.58
2023-05-14T21:52:51.216Z,49.26
2023-05-14T21:55:36.798Z,49.33
2023-05-14T21:58:22.028Z,49.36
2023-05-14T22:01:08.812Z,50.31
2023-05-14T22:03:55.698Z,50.52
2023-05-14T22:06:44.438Z,50.15
2023-05-14T22:09:30.410Z,50.79
2023-05-14T22:12:15.802Z,51.44
2023-05-14T22:15:01.143Z,50.28
2023-05-14T22:17:47.381Z,50.48
2023-05-14T22:20:32.898Z,50.35
2023-05-14T22:23:18.076Z,50.91
2023-05-14T22:26:03.437Z,51.69
2023-05-14T22:28:49.532Z,52.15
2023-05-14T22:31:34.877Z,52.95
2023-05-14T22:34:20.016Z,52.86
2023-05-14T22:37:05.676Z,52.63
2023-05-14T22:39:51.088Z,53.08
2023-05-14T22:42:36.466Z,52.78
2023-05-14T22:45:21.817Z,52.33
2023-05-14T22:48:07.075Z,52.58
2023-05-14T22:50:52.211Z,52.95
2023-05-14T22:53:37.622Z,53.82
2023-05-14T22:56:23.101Z,54.28
2023-05-14T22:59:08.350Z,54.41
2023-05-14T23:01:53.804Z,55.24
2023-05-14T23:04:39.231Z,54.87
2023-05-14T23:07:24.601Z,55.64
2023-05-14T23:10:10.452Z,55.61
2023-05-14T23:12:55.781Z,55.80
2023-05-14T23:15:40.881Z,56.17
2023-05-14T23:18:26.275Z,56.19
2023-05-14T23:21:12.791Z,55.98
2023-05-14T23:23:58.250Z,56.38
2023-05-14T23:26:44.082Z,56.33
2023-05-14T23:29:29.393Z,56.34
2023-05-14T23:32:14.694Z,56.15
2023-05-14T23:34:59.904Z,57.24
2023-05-14T23:37:47.193Z,57.33
2023-05-14T23:40:33.518Z,56.91
2023-05-14T23:43:18.913Z,57.11
2023-05-14T23:46:04.459Z,57.50
2023-05-14T23:48:51.869Z,57.82
2023-05-14T23:51:37.723Z,57.98
2023-05-14T23:54:23.022Z,58.31
2023-05-14T23:57:08.539Z,58.23
2023-05-14T23:59:53.690Z,58.23
